Time;durP1;ratioP1;P1;durP2;ratioP2;P2;SDS_P1;SDS_P2;PMS_P1;PMS_P2;Temp;Humidity;BMP_temperature;BMP_pressure;BME280_temperature;BME280_humidity;BME280_pressure;Samples;Min_cycle;Max_cycle;Signal;HPM_P1;HPM_P2
2021/12/17 00:03:50;;;;;;;89.68;55.05;;;;;;;6.52;91.33;103792.25;10496375;28;20065;-92
2021/12/17 00:08:52;;;;;;;97.85;54.58;;;;;;;6.51;91.74;103786.13;10464780;28;20111;-92
2021/12/17 00:13:55;;;;;;;83.87;45.13;;;;;;;6.49;91.80;103791.91;10479206;28;20037;-92
2021/12/17 00:19:07;;;;;;;130.88;62.65;;;;;;;6.53;92.08;103784.63;10481260;28;20025;-91
2021/12/17 00:40:25;;;;;;;138.60;66.05;;;;;;;6.85;92.09;103778.50;10480538;28;20535;-90
2021/12/17 00:55:58;;;;;;;104.45;59.50;;;;;;;6.92;91.26;103778.41;10488098;28;20488;-90
2021/12/17 01:00:59;;;;;;;141.77;62.85;;;;;;;6.89;91.44;103773.81;10496058;28;20107;-90
2021/12/17 01:06:02;;;;;;;114.55;52.22;;;;;;;6.86;91.46;103765.69;10494786;28;20128;-91
2021/12/17 01:11:06;;;;;;;139.77;58.45;;;;;;;6.82;91.74;103762.56;10453889;28;20032;-91
2021/12/17 01:16:21;;;;;;;135.20;54.75;;;;;;;6.80;91.03;103753.66;10459405;28;20024;-90
2021/12/17 01:21:36;;;;;;;102.85;52.95;;;;;;;6.64;91.15;103756.25;10464746;28;20036;-90
2021/12/17 01:42:48;;;;;;;128.10;54.70;;;;;;;6.50;92.31;103740.06;10493984;28;20021;-90
2021/12/17 01:48:06;;;;;;;121.25;57.08;;;;;;;6.42;92.00;103738.28;10459835;28;20469;-90
2021/12/17 02:04:04;;;;;;;251.13;70.00;;;;;;;6.42;92.54;103741.78;10479422;28;20082;-90
2021/12/17 02:31:32;;;;;;;210.77;59.92;;;;;;;6.39;92.36;103759.66;10463789;28;20049;-90
2021/12/17 02:36:35;;;;;;;228.10;64.40;;;;;;;6.37;92.21;103755.06;10495729;28;20090;-90
2021/12/17 02:46:55;;;;;;;146.07;53.33;;;;;;;6.29;92.00;103767.19;10500501;28;20033;-90
2021/12/17 02:51:56;;;;;;;160.80;50.38;;;;;;;6.28;91.58;103765.34;10466488;28;20059;-91
2021/12/17 02:56:56;;;;;;;170.05;57.35;;;;;;;6.25;91.75;103772.81;10499984;28;20029;-90
2021/12/17 03:01:57;;;;;;;168.88;55.47;;;;;;;6.19;92.03;103770.47;10482071;28;20016;-90
2021/12/17 03:06:57;;;;;;;108.53;48.28;;;;;;;6.13;91.71;103778.47;10467105;28;20429;-91
2021/12/17 03:11:58;;;;;;;200.45;56.97;;;;;;;6.13;91.76;103778.47;10441422;28;20079;-90
2021/12/17 03:17:08;;;;;;;158.10;55.67;;;;;;;6.08;91.86;103766.63;10457047;28;20075;-91
2021/12/17 03:27:27;;;;;;;161.68;53.67;;;;;;;6.06;92.17;103778.53;10498611;28;20036;-90
2021/12/17 03:32:28;;;;;;;136.00;53.63;;;;;;;6.05;91.68;103776.69;10481675;28;20078;-90
2021/12/17 03:37:28;;;;;;;160.05;53.50;;;;;;;6.04;91.72;103777.44;10482591;28;20492;-90
2021/12/17 03:42:29;;;;;;;165.23;57.15;;;;;;;6.01;91.80;103770.25;10498709;28;20041;-91
2021/12/17 03:47:29;;;;;;;168.07;57.65;;;;;;;6.02;91.89;103772.09;10499390;28;20508;-91
2021/12/17 03:52:30;;;;;;;183.25;61.50;;;;;;;6.02;92.05;103766.88;10439027;28;20087;-89
2021/12/17 03:57:30;;;;;;;190.82;60.72;;;;;;;6.02;92.08;103769.50;10456519;28;20086;-90
2021/12/17 04:02:31;;;;;;;228.68;68.07;;;;;;;5.96;92.13;103766.16;10514254;28;20028;-91
2021/12/17 04:07:31;;;;;;;216.25;61.95;;;;;;;6.01;92.95;103762.44;10497351;28;20021;-91
2021/12/17 04:12:49;;;;;;;209.98;60.47;;;;;;;6.01;91.99;103761.50;10495915;28;20094;-91
2021/12/17 04:17:55;;;;;;;211.18;66.28;;;;;;;6.01;92.36;103764.09;10468893;28;20028;-90
2021/12/17 04:22:55;;;;;;;198.48;59.63;;;;;;;5.99;92.36;103766.50;10480189;28;20542;-93
2021/12/17 04:27:56;;;;;;;180.07;60.58;;;;;;;5.99;92.12;103756.09;10478785;28;20131;-88
2021/12/17 04:32:57;;;;;;;203.85;68.45;;;;;;;6.00;91.99;103751.81;10464783;28;20524;-88
2021/12/17 04:37:58;;;;;;;201.10;66.70;;;;;;;6.05;92.52;103761.09;10497488;28;20111;-90
2021/12/17 04:58:54;;;;;;;195.27;67.15;;;;;;;6.07;93.04;103758.69;10494387;28;20025;-93
2021/12/17 05:03:54;;;;;;;191.90;53.93;;;;;;;6.08;92.88;103752.72;10490833;28;20369;-87
2021/12/17 05:09:00;;;;;;;200.93;70.43;;;;;;;6.13;92.41;103762.88;10478122;28;20283;-90
2021/12/17 05:19:36;;;;;;;192.90;67.13;;;;;;;6.10;92.65;103772.94;10494630;28;20129;-86
2021/12/17 05:24:36;;;;;;;164.68;60.17;;;;;;;6.07;92.71;103769.09;10472039;28;20070;-90
2021/12/17 05:29:37;;;;;;;152.73;60.95;;;;;;;6.05;92.55;103771.50;10493549;28;20056;-89
2021/12/17 05:34:38;;;;;;;196.32;65.95;;;;;;;6.02;93.06;103764.28;10491754;28;20504;-89
2021/12/17 05:39:38;;;;;;;196.38;71.95;;;;;;;6.03;93.15;103762.59;10493720;28;20506;-89
2021/12/17 05:44:40;;;;;;;160.93;63.42;;;;;;;6.03;92.70;103765.19;10492647;28;20029;-89
2021/12/17 05:49:40;;;;;;;165.18;59.08;;;;;;;6.09;92.96;103775.38;10492879;28;20373;-89
2021/12/17 05:54:41;;;;;;;176.75;67.65;;;;;;;6.05;92.23;103771.50;10475766;28;20115;-89
2021/12/17 05:59:41;;;;;;;152.88;54.60;;;;;;;6.04;92.45;103769.66;10475249;28;20594;-88
2021/12/17 06:04:42;;;;;;;132.85;54.70;;;;;;;6.02;92.40;103777.28;10475645;28;20068;-85
2021/12/17 06:09:42;;;;;;;148.18;54.90;;;;;;;5.98;92.80;103767.25;10484315;28;20025;-89
2021/12/17 06:14:43;;;;;;;122.78;51.55;;;;;;;6.02;92.34;103779.88;10493681;28;20056;-88
2021/12/17 06:19:44;;;;;;;123.78;49.47;;;;;;;6.04;92.68;103786.94;10463891;28;20036;-88
2021/12/17 06:24:45;;;;;;;112.03;46.47;;;;;;;6.01;92.05;103784.91;10477370;28;20055;-88
2021/12/17 06:29:46;;;;;;;103.70;42.03;;;;;;;6.00;92.05;103788.22;10470132;28;20033;-88
2021/12/17 06:34:46;;;;;;;78.25;36.13;;;;;;;5.96;91.84;103797.38;10472799;28;20553;-85
2021/12/17 06:39:47;;;;;;;94.20;42.53;;;;;;;5.94;92.20;103792.72;10475980;28;20090;-86
2021/12/17 06:44:48;;;;;;;80.15;37.83;;;;;;;5.90;91.78;103790.53;10472121;28;20029;-88
2021/12/17 06:49:56;;;;;;;101.30;39.75;;;;;;;5.95;91.43;103792.91;10497230;28;20107;-89
2021/12/17 06:55:19;;;;;;;95.13;42.15;;;;;;;5.92;91.34;103799.41;10504217;28;20033;-85
2021/12/17 07:10:47;;;;;;;108.80;41.80;;;;;;;5.90;92.07;103796.66;10471596;28;20112;-88
2021/12/17 07:42:02;;;;;;;81.63;33.78;;;;;;;5.93;90.95;103794.41;10479935;28;20029;-88
2021/12/17 07:47:03;;;;;;;82.00;34.63;;;;;;;5.93;91.52;103797.00;10508255;28;20032;-89
2021/12/17 07:52:04;;;;;;;74.20;36.42;;;;;;;5.93;91.12;103791.81;10475545;28;20044;-88
2021/12/17 07:57:04;;;;;;;74.10;32.95;;;;;;;5.93;91.06;103801.28;10488657;28;20036;-88
2021/12/17 08:02:06;;;;;;;80.28;31.13;;;;;;;5.90;91.17;103800.91;10469504;28;20358;-87
2021/12/17 08:07:06;;;;;;;95.68;38.08;;;;;;;5.93;91.81;103793.47;10482623;28;20116;-89
2021/12/17 08:12:09;;;;;;;81.47;38.10;;;;;;;6.02;91.06;103794.56;10464286;28;20032;-87
2021/12/17 08:23:53;;;;;;;77.50;33.40;;;;;;;6.06;91.73;103790.63;10468372;28;20481;-89
2021/12/17 08:28:05;;;;;;;82.95;34.83;;;;;;;6.12;90.73;103792.25;10493397;28;20037;-88
2021/12/17 08:33:06;;;;;;;89.68;34.00;;;;;;;6.14;90.54;103800.22;10482061;28;20086;-89
2021/12/17 08:38:08;;;;;;;68.78;34.00;;;;;;;6.15;90.71;103805.59;10494781;28;20557;-89
2021/12/17 08:43:08;;;;;;;73.15;29.00;;;;;;;6.17;91.05;103809.28;10495511;28;20021;-88
2021/12/17 08:48:09;;;;;;;81.25;32.00;;;;;;;6.17;90.89;103824.88;10477459;28;20075;-88
2021/12/17 08:53:09;;;;;;;61.03;30.08;;;;;;;6.15;91.30;103821.19;10494657;28;20075;-89
2021/12/17 08:58:13;;;;;;;72.60;28.58;;;;;;;6.19;91.44;103835.47;10494036;28;20035;-89
2021/12/17 09:03:14;;;;;;;65.60;30.02;;;;;;;6.22;90.73;103846.22;10462582;28;20067;-90
2021/12/17 09:08:14;;;;;;;57.55;25.25;;;;;;;6.27;91.50;103849.34;10494074;28;20052;-93
2021/12/17 09:13:15;;;;;;;62.85;25.30;;;;;;;6.29;91.58;103845.22;10471428;28;20035;-89
2021/12/17 09:18:15;;;;;;;61.25;27.50;;;;;;;6.31;90.53;103851.53;10466521;28;20115;-91
2021/12/17 09:23:16;;;;;;;48.63;24.92;;;;;;;6.29;90.05;103855.63;10446026;28;20493;-91
2021/12/17 09:28:16;;;;;;;73.22;29.65;;;;;;;6.24;90.55;103856.78;10494017;28;20024;-91
2021/12/17 09:33:17;;;;;;;58.72;29.00;;;;;;;6.20;91.01;103855.53;10476306;28;20641;-92
2021/12/17 09:38:18;;;;;;;65.57;28.75;;;;;;;6.30;91.30;103855.84;10497030;28;20033;-90
2021/12/17 09:43:19;;;;;;;64.72;27.48;;;;;;;6.32;90.95;103859.53;10459973;28;20031;-88
2021/12/17 09:48:19;;;;;;;60.67;29.77;;;;;;;6.36;90.82;103857.28;10474202;28;20451;-88
2021/12/17 09:53:20;;;;;;;59.92;27.25;;;;;;;6.41;90.58;103856.13;10504506;28;20027;-89
2021/12/17 09:58:20;;;;;;;54.63;27.65;;;;;;;6.40;91.18;103855.16;10501951;28;20141;-91
2021/12/17 10:03:21;;;;;;;53.13;25.15;;;;;;;6.51;90.53;103869.41;10472052;28;20021;-91
2021/12/17 10:08:22;;;;;;;54.13;23.40;;;;;;;6.55;90.68;103876.81;10491484;28;20064;-92
2021/12/17 10:13:33;;;;;;;50.40;25.10;;;;;;;6.60;89.95;103878.25;10510293;28;20060;-89
2021/12/17 10:18:42;;;;;;;46.70;24.33;;;;;;;6.52;89.99;103871.25;10484412;28;20040;-89
2021/12/17 10:23:43;;;;;;;56.30;25.85;;;;;;;6.64;89.72;103881.19;10486018;28;20443;-87
2021/12/17 10:28:52;;;;;;;57.05;25.13;;;;;;;6.61;90.08;103887.91;10503268;28;20028;-91
2021/12/17 10:33:54;;;;;;;66.15;31.08;;;;;;;6.61;89.17;103876.56;10541165;28;20491;-89
2021/12/17 10:38:54;;;;;;;51.20;25.93;;;;;;;6.68;89.70;103875.59;10506039;28;20067;-90
2021/12/17 10:44:00;;;;;;;59.22;25.25;;;;;;;6.75;90.02;103888.53;10494103;28;20310;-88
2021/12/17 10:54:21;;;;;;;69.20;28.40;;;;;;;6.85;89.95;103878.38;10528828;28;20028;-89
2021/12/17 10:59:26;;;;;;;60.53;25.45;;;;;;;6.96;88.39;103882.16;10543990;28;20016;-89
2021/12/17 11:04:30;;;;;;;61.47;27.10;;;;;;;7.06;88.07;103871.09;10510786;28;20020;-89
2021/12/17 11:09:37;;;;;;;51.22;24.65;;;;;;;6.99;87.88;103869.47;10544072;28;20393;-85
2021/12/17 11:14:38;;;;;;;51.08;24.05;;;;;;;7.00;88.57;103863.53;10494643;28;20070;-85
2021/12/17 11:19:39;;;;;;;51.15;22.80;;;;;;;7.03;87.98;103866.47;10498329;28;20469;-83
2021/12/17 11:24:39;;;;;;;54.95;24.70;;;;;;;7.09;88.28;103848.00;10498740;28;20031;-84
2021/12/17 11:29:40;;;;;;;53.05;22.48;;;;;;;7.09;88.18;103845.41;10481001;28;20056;-83
2021/12/17 11:34:42;;;;;;;61.50;24.42;;;;;;;7.13;87.81;103854.44;10481029;28;20044;-84
2021/12/17 11:39:46;;;;;;;52.47;24.27;;;;;;;7.16;87.71;103849.56;10498196;28;20392;-85
2021/12/17 11:44:53;;;;;;;49.50;23.10;;;;;;;7.19;88.19;103835.22;10481741;28;20043;-84
2021/12/17 11:49:54;;;;;;;51.67;24.38;;;;;;;7.24;88.09;103838.31;10496752;28;20377;-84
2021/12/17 11:54:54;;;;;;;45.45;18.63;;;;;;;7.29;87.28;103841.44;10497472;28;20070;-87
2021/12/17 11:59:55;;;;;;;39.03;18.52;;;;;;;7.27;87.85;103846.47;10464263;28;20021;-83
2021/12/17 12:05:00;;;;;;;53.42;20.38;;;;;;;7.24;88.03;103838.31;10463347;28;20376;-87
2021/12/17 12:10:15;;;;;;;41.15;21.30;;;;;;;7.23;87.63;103843.38;10478145;28;20024;-86
2021/12/17 12:15:34;;;;;;;39.83;21.60;;;;;;;7.24;87.88;103843.53;10496085;28;20028;-85
2021/12/17 12:20:45;;;;;;;38.28;16.40;;;;;;;7.31;87.58;103840.81;10468932;28;20024;-85
2021/12/17 12:25:47;;;;;;;35.33;16.58;;;;;;;7.37;87.83;103830.16;10478928;28;20036;-86
2021/12/17 12:30:48;;;;;;;34.20;16.90;;;;;;;7.40;87.43;103824.34;10494403;28;20049;-85
2021/12/17 12:35:56;;;;;;;36.60;19.33;;;;;;;7.37;87.06;103832.78;10478927;28;20040;-85
2021/12/17 12:40:58;;;;;;;49.25;21.60;;;;;;;7.35;87.39;103829.97;10478662;28;20095;-86
2021/12/17 12:46:00;;;;;;;45.67;19.88;;;;;;;7.28;87.83;103821.34;10496337;28;20050;-86
2021/12/17 12:51:34;;;;;;;;;;;;;;;7.26;88.38;103815.97;10481165;28;20039;-86
2021/12/17 12:56:38;;;;;;;42.50;19.70;;;;;;;7.22;88.86;103824.19;10516792;28;19915;-87
2021/12/17 13:01:38;;;;;;;31.80;17.33;;;;;;;7.27;88.63;103827.31;10485054;28;20039;-86
2021/12/17 13:06:47;;;;;;;34.95;17.20;;;;;;;7.23;88.47;103818.22;10494272;28;20071;-87
2021/12/17 13:11:48;;;;;;;41.60;17.13;;;;;;;7.17;88.97;103820.16;10491913;28;20036;-87
2021/12/17 13:17:06;;;;;;;33.92;15.43;;;;;;;7.28;88.83;103823.94;10478152;28;20028;-86
2021/12/17 13:22:28;;;;;;;23.85;13.43;;;;;;;7.26;88.67;103812.44;10479063;28;20387;-86
2021/12/17 13:27:27;;;;;;;24.90;11.95;;;;;;;7.29;87.74;103818.91;10489706;28;20110;-87
2021/12/17 13:32:28;;;;;;;23.23;12.35;;;;;;;7.27;88.16;103815.19;10476351;28;20087;-83
2021/12/17 13:37:32;;;;;;;51.05;32.42;;;;;;;7.30;87.57;103812.00;10478050;28;20068;-86
2021/12/17 13:42:37;;;;;;;20.30;11.13;;;;;;;7.30;88.13;103812.00;10495895;28;20377;-85
2021/12/17 13:47:41;;;;;;;19.15;11.48;;;;;;;7.33;87.68;103802.84;10492432;28;20115;-88
2021/12/17 13:52:55;;;;;;;18.65;9.73;;;;;;;7.30;87.90;103812.94;10495076;28;20033;-87
2021/12/17 13:57:56;;;;;;;21.85;13.32;;;;;;;7.19;88.23;103803.03;10492914;28;20507;-87
2021/12/17 14:02:58;;;;;;;19.40;9.70;;;;;;;7.18;88.44;103817.75;10475975;28;20033;-86
2021/12/17 14:07:59;;;;;;;23.70;11.50;;;;;;;7.08;88.85;103809.69;10477113;28;20024;-86
2021/12/17 14:13:00;;;;;;;19.63;11.00;;;;;;;7.08;88.36;103811.34;10477020;28;20036;-87
2021/12/17 14:18:03;;;;;;;22.38;12.25;;;;;;;7.05;88.57;103810.25;10492184;28;20116;-84
2021/12/17 14:23:06;;;;;;;20.02;10.65;;;;;;;7.03;89.09;103797.84;10475956;28;20036;-84
2021/12/17 14:28:13;;;;;;;;;;;;;;;7.08;89.08;103796.66;10459759;28;20472;-87
2021/12/17 14:33:18;;;;;;;19.10;10.23;;;;;;;7.04;89.39;103805.81;10493786;28;19966;-88
2021/12/17 14:38:23;;;;;;;19.95;10.75;;;;;;;7.04;89.03;103810.09;10483762;28;20032;-89
2021/12/17 14:43:25;;;;;;;22.65;11.50;;;;;;;7.01;89.74;103808.06;10467183;28;20089;-88
2021/12/17 14:48:35;;;;;;;18.05;9.73;;;;;;;7.03;89.94;103809.16;10499380;28;20025;-88
2021/12/17 15:04:06;;;;;;;15.35;8.93;;;;;;;6.93;89.18;103808.00;10483087;28;20388;-88
2021/12/17 15:09:07;;;;;;;17.10;9.65;;;;;;;6.85;89.56;103808.09;10499262;28;20025;-88
2021/12/17 15:14:07;;;;;;;14.30;9.23;;;;;;;6.84;89.73;103823.53;10481738;28;20063;-87
2021/12/17 15:19:08;;;;;;;19.83;9.77;;;;;;;6.67;90.17;103811.25;10498718;28;20059;-88
2021/12/17 15:24:09;;;;;;;18.80;11.23;;;;;;;6.68;90.15;103810.50;10498393;28;20121;-89
2021/12/17 15:29:09;;;;;;;17.23;9.30;;;;;;;6.73;90.69;103805.03;10482558;28;20094;-89
2021/12/17 15:34:10;;;;;;;16.75;10.32;;;;;;;6.77;89.92;103798.50;10496820;28;20068;-89
2021/12/17 15:39:10;;;;;;;16.33;9.18;;;;;;;6.71;90.19;103798.75;10499673;28;20068;-89
2021/12/17 15:44:11;;;;;;;14.52;8.38;;;;;;;6.59;90.07;103803.53;10497699;28;20115;-89
2021/12/17 15:49:11;;;;;;;14.38;8.02;;;;;;;6.67;90.34;103801.75;10479792;28;20028;-90
2021/12/17 15:54:12;;;;;;;11.48;6.75;;;;;;;6.58;89.68;103803.34;10480254;28;20025;-88
2021/12/17 15:59:12;;;;;;;13.38;7.50;;;;;;;6.58;89.64;103801.69;10499604;28;20497;-88
2021/12/17 16:04:13;;;;;;;14.23;7.05;;;;;;;6.67;89.87;103812.16;10478661;28;20031;-90
2021/12/17 16:09:48;;;;;;;9.63;5.88;;;;;;;6.69;89.12;103814.97;10495717;28;20063;-87
2021/12/17 16:25:16;;;;;;;13.23;8.35;;;;;;;6.45;89.25;103829.69;10474732;28;20042;-87
2021/12/17 16:30:19;;;;;;;9.82;5.65;;;;;;;6.39;90.16;103829.91;10508213;28;20080;-87
2021/12/17 16:35:19;;;;;;;9.35;5.18;;;;;;;6.26;89.32;103837.09;10508647;28;20094;-86
2021/12/17 16:40:20;;;;;;;8.85;5.40;;;;;;;6.19;89.82;103831.94;10502148;28;20545;-87
2021/12/17 16:45:40;;;;;;;10.65;4.60;;;;;;;6.12;90.01;103839.03;10520122;28;20028;-88
2021/12/17 16:50:40;;;;;;;10.25;5.13;;;;;;;6.07;90.01;103835.00;10509386;28;20028;-89
2021/12/17 16:55:41;;;;;;;9.13;4.85;;;;;;;6.02;89.95;103833.56;10514208;28;20036;-87
2021/12/17 17:00:42;;;;;;;9.48;6.13;;;;;;;5.97;89.96;103827.81;10507354;28;20059;-87
2021/12/17 17:05:43;;;;;;;13.68;7.88;;;;;;;6.01;90.24;103839.50;10493589;28;20051;-87
2021/12/17 17:10:52;;;;;;;15.07;9.10;;;;;;;6.03;89.31;103832.81;10458621;28;20147;-87
2021/12/17 17:15:53;;;;;;;17.45;10.18;;;;;;;5.89;89.49;103828.59;10495906;28;20040;-86
2021/12/17 17:20:53;;;;;;;14.05;7.68;;;;;;;5.78;88.32;103829.97;10478214;28;20119;-86
2021/12/17 17:25:54;;;;;;;20.40;12.25;;;;;;;5.60;89.00;103831.38;10495726;28;20063;-87
2021/12/17 17:30:55;;;;;;;21.58;13.35;;;;;;;5.35;89.12;103818.16;10494116;28;20048;-88
2021/12/17 17:35:55;;;;;;;18.48;12.38;;;;;;;5.09;89.15;103818.63;10456931;28;20040;-88
2021/12/17 17:40:56;;;;;;;22.05;13.23;;;;;;;4.91;89.84;103816.47;10493291;28;20074;-85
2021/12/17 17:45:56;;;;;;;23.90;16.23;;;;;;;4.75;89.99;103816.28;10493751;28;20455;-86
2021/12/17 17:50:57;;;;;;;28.05;20.75;;;;;;;4.61;90.07;103817.28;10476023;28;20077;-86
2021/12/17 17:55:58;;;;;;;25.23;15.00;;;;;;;4.66;91.02;103822.25;10473219;28;20511;-86
2021/12/17 18:00:58;;;;;;;27.10;17.20;;;;;;;4.74;90.82;103832.63;10492360;28;20040;-88
2021/12/17 18:05:59;;;;;;;26.80;17.83;;;;;;;4.73;90.58;103829.09;10492771;28;20055;-87
2021/12/17 18:11:00;;;;;;;25.67;16.38;;;;;;;4.73;90.91;103833.34;10496993;28;20036;-88
2021/12/17 18:16:01;;;;;;;22.73;15.68;;;;;;;4.72;91.07;103829.84;10483844;28;20029;-86
2021/12/17 18:21:01;;;;;;;29.55;19.10;;;;;;;4.79;90.85;103841.88;10501104;28;20137;-86
2021/12/17 18:26:02;;;;;;;29.05;17.13;;;;;;;4.85;90.68;103827.97;10485497;28;20098;-86
2021/12/17 18:31:02;;;;;;;30.73;15.75;;;;;;;4.85;90.44;103840.94;10497063;28;20033;-86
2021/12/17 18:36:03;;;;;;;28.75;18.15;;;;;;;4.90;91.31;103833.69;10501141;28;20071;-87
2021/12/17 18:41:09;;;;;;;30.35;17.50;;;;;;;4.97;90.09;103838.88;10502936;28;20381;-85
2021/12/17 18:46:11;;;;;;;31.27;20.13;;;;;;;4.99;90.68;103836.47;10500252;28;20036;-84
2021/12/17 18:51:11;;;;;;;33.08;21.05;;;;;;;5.01;90.94;103832.38;10499451;28;20040;-86
2021/12/17 18:56:12;;;;;;;31.88;18.00;;;;;;;5.04;90.92;103835.34;10499631;28;20056;-85
2021/12/17 19:01:12;;;;;;;32.22;17.80;;;;;;;4.99;90.09;103845.16;10478752;28;20134;-88
2021/12/17 19:06:13;;;;;;;33.63;20.40;;;;;;;5.04;90.42;103843.13;10482553;28;20490;-89
2021/12/17 19:11:13;;;;;;;37.03;22.02;;;;;;;5.12;90.36;103847.56;10498983;28;20024;-87
2021/12/17 19:16:15;;;;;;;29.08;20.13;;;;;;;5.20;90.00;103848.44;10482619;28;20056;-92
2021/12/17 19:21:27;;;;;;;34.08;18.33;;;;;;;5.19;90.00;103854.38;10497980;28;20511;-87
2021/12/17 19:26:28;;;;;;;30.48;16.38;;;;;;;5.24;90.09;103860.13;10499087;28;20020;-87
2021/12/17 19:31:28;;;;;;;28.75;18.17;;;;;;;5.23;89.57;103863.47;10480219;28;20054;-87
2021/12/17 19:36:29;;;;;;;41.15;24.88;;;;;;;5.33;89.71;103860.25;10498579;28;20033;-87
2021/12/17 19:41:30;;;;;;;34.28;20.65;;;;;;;5.37;90.04;103862.47;10499855;28;20444;-84
2021/12/17 19:46:39;;;;;;;44.45;25.08;;;;;;;5.43;89.72;103856.34;10497114;28;20543;-85
2021/12/17 19:51:40;;;;;;;47.17;29.13;;;;;;;5.46;88.36;103858.34;10467268;28;20150;-88
2021/12/17 19:56:41;;;;;;;40.75;24.85;;;;;;;5.44;88.68;103855.59;10463649;28;20040;-87
2021/12/17 20:01:44;;;;;;;50.03;31.25;;;;;;;5.47;88.79;103854.09;10497854;28;20040;-88
2021/12/17 20:06:47;;;;;;;29.08;18.10;;;;;;;5.42;88.97;103856.13;10497807;28;20030;-87
2021/12/17 20:11:49;;;;;;;43.25;25.58;;;;;;;5.41;89.41;103854.28;10498462;28;20037;-88
2021/12/17 20:16:49;;;;;;;39.20;25.33;;;;;;;5.41;88.95;103849.09;10478956;28;20028;-88
2021/12/17 20:21:49;;;;;;;49.78;28.83;;;;;;;5.37;88.90;103853.03;10479018;28;20154;-87
2021/12/17 20:26:50;;;;;;;58.30;33.85;;;;;;;5.43;89.91;103848.53;10479533;28;20059;-87
2021/12/17 20:31:51;;;;;;;61.60;34.10;;;;;;;5.49;88.74;103844.81;10494266;28;20105;-88
2021/12/17 20:36:51;;;;;;;56.63;33.53;;;;;;;5.53;89.13;103842.72;10480445;28;20445;-87
2021/12/17 20:41:54;;;;;;;57.00;33.33;;;;;;;5.53;88.70;103834.94;10495124;28;20107;-88
2021/12/17 20:46:57;;;;;;;55.67;30.88;;;;;;;5.61;88.00;103829.69;10479101;28;20040;-87
2021/12/17 20:51:57;;;;;;;45.90;29.70;;;;;;;5.56;88.26;103826.59;10491531;28;20486;-88
2021/12/17 20:56:58;;;;;;;55.97;34.78;;;;;;;5.75;86.38;103833.91;10493329;28;20111;-90
2021/12/17 21:01:58;;;;;;;63.55;38.67;;;;;;;5.67;86.77;103833.94;10493274;28;20067;-87
2021/12/17 21:06:59;;;;;;;68.00;40.20;;;;;;;5.72;86.65;103840.59;10494528;28;20030;-86
2021/12/17 21:12:01;;;;;;;51.28;32.15;;;;;;;5.85;85.78;103844.59;10494729;28;20063;-88
2021/12/17 21:17:02;;;;;;;56.00;36.13;;;;;;;5.93;84.91;103845.47;10495099;28;20361;-87
2021/12/17 21:22:03;;;;;;;62.42;38.20;;;;;;;5.83;85.72;103849.59;10495156;28;20115;-87
2021/12/17 21:27:04;;;;;;;61.55;37.80;;;;;;;5.77;86.25;103832.41;10496201;28;20028;-88
2021/12/17 21:32:05;;;;;;;69.43;36.95;;;;;;;5.78;86.49;103821.25;10476569;28;20377;-88
2021/12/17 21:37:06;;;;;;;59.78;36.47;;;;;;;5.88;85.99;103831.97;10495620;28;20035;-88
2021/12/17 21:42:07;;;;;;;65.30;36.93;;;;;;;5.97;84.93;103832.06;10477229;28;20396;-87
2021/12/17 21:47:08;;;;;;;64.07;38.22;;;;;;;5.97;84.98;103839.88;10477774;28;20031;-88
2021/12/17 21:52:09;;;;;;;70.53;38.63;;;;;;;6.00;85.58;103830.78;10493532;28;20134;-89
2021/12/17 21:57:09;;;;;;;62.30;34.55;;;;;;;6.14;83.86;103832.34;10478877;28;20024;-87
2021/12/17 22:02:10;;;;;;;58.20;34.10;;;;;;;6.14;84.32;103829.75;10494552;28;20119;-88
2021/12/17 22:07:11;;;;;;;56.25;33.45;;;;;;;6.07;84.56;103837.59;10494037;28;20020;-87
2021/12/17 22:12:11;;;;;;;55.95;33.60;;;;;;;6.01;84.74;103823.91;10495008;28;20064;-88
2021/12/17 22:17:12;;;;;;;48.13;31.08;;;;;;;6.03;84.64;103832.81;10493806;28;20024;-88
2021/12/17 22:22:14;;;;;;;50.28;28.17;;;;;;;6.04;85.84;103839.84;10492785;28;20440;-87
2021/12/17 22:27:14;;;;;;;;;;;;;;;6.02;85.23;103838.75;10478090;28;20384;-87
2021/12/17 22:32:15;;;;;;;45.90;26.42;;;;;;;6.01;85.16;103830.03;10490500;28;19961;-88
2021/12/17 22:37:16;;;;;;;41.63;24.30;;;;;;;6.04;85.71;103832.06;10493991;28;20094;-87
2021/12/17 22:42:17;;;;;;;40.45;24.08;;;;;;;5.99;85.32;103827.97;10477062;28;20063;-88
2021/12/17 22:47:18;;;;;;;40.60;23.05;;;;;;;5.92;85.86;103821.16;10472443;28;20472;-87
2021/12/17 22:52:18;;;;;;;34.53;23.67;;;;;;;5.85;86.61;103829.00;10458435;28;20131;-87
2021/12/17 22:57:19;;;;;;;37.50;20.55;;;;;;;5.91;87.01;103837.50;10496636;28;20017;-87
2021/12/17 23:02:19;;;;;;;40.63;21.08;;;;;;;5.90;86.57;103838.25;10499715;28;20033;-87
2021/12/17 23:07:28;;;;;;;35.72;20.42;;;;;;;5.94;86.28;103826.53;10484414;28;20074;-87
2021/12/17 23:12:29;;;;;;;39.28;22.95;;;;;;;5.97;87.23;103838.22;10484594;28;20036;-80
2021/12/17 23:17:31;;;;;;;39.60;20.67;;;;;;;5.98;87.02;103836.50;10483245;28;20021;-87
2021/12/17 23:22:34;;;;;;;37.17;22.92;;;;;;;6.00;86.90;103840.22;10483532;28;20103;-79
2021/12/17 23:27:34;;;;;;;43.30;22.75;;;;;;;5.98;87.07;103833.91;10499207;28;20028;-79
2021/12/17 23:32:38;;;;;;;43.17;22.00;;;;;;;6.02;86.95;103837.09;10497167;28;20504;-82
2021/12/17 23:37:39;;;;;;;41.38;23.08;;;;;;;5.96;87.36;103822.41;10499141;28;20095;-84
2021/12/17 23:42:39;;;;;;;42.17;23.15;;;;;;;6.01;86.88;103831.69;10483261;28;20483;-88
2021/12/17 23:47:39;;;;;;;46.15;24.33;;;;;;;6.00;87.24;103827.22;10497727;28;20039;-85
2021/12/17 23:52:40;;;;;;;39.50;25.08;;;;;;;5.96;86.94;103822.41;10481717;28;20138;-84
2021/12/17 23:57:40;;;;;;;40.88;24.00;;;;;;;6.01;87.56;103826.50;10497838;28;20056;-82
